sensor_id;sensor_type;location;lat;lon;timestamp;pressure;altitude;pressure_sealevel;temperature;humidity
50292;BME280;36190;54.980;73.388;2023-02-18T00:01:30;101442.78;;;-14.24;62.90
50292;BME280;36190;54.980;73.388;2023-02-18T00:03:58;101440.16;;;-14.30;62.88
50292;BME280;36190;54.980;73.388;2023-02-18T00:06:27;101436.72;;;-14.29;63.09
50292;BME280;36190;54.980;73.388;2023-02-18T00:08:55;101430.78;;;-14.27;62.93
50292;BME280;36190;54.980;73.388;2023-02-18T00:11:27;101405.94;;;-14.32;63.03
50292;BME280;36190;54.980;73.388;2023-02-18T00:13:56;101386.28;;;-14.33;63.09
50292;BME280;36190;54.980;73.388;2023-02-18T00:16:25;101375.19;;;-14.32;63.47
50292;BME280;36190;54.980;73.388;2023-02-18T00:18:56;101394.13;;;-14.15;63.20
50292;BME280;36190;54.980;73.388;2023-02-18T00:21:24;101400.97;;;-14.14;63.02
50292;BME280;36190;54.980;73.388;2023-02-18T00:23:52;101390.66;;;-14.21;63.02
50292;BME280;36190;54.980;73.388;2023-02-18T00:26:19;101372.66;;;-14.25;63.09
50292;BME280;36190;54.980;73.388;2023-02-18T00:28:48;101369.31;;;-14.20;63.27
50292;BME280;36190;54.980;73.388;2023-02-18T00:31:18;101377.09;;;-14.10;63.24
50292;BME280;36190;54.980;73.388;2023-02-18T00:33:46;101381.34;;;-14.10;63.11
50292;BME280;36190;54.980;73.388;2023-02-18T00:36:17;101367.69;;;-14.07;63.16
50292;BME280;36190;54.980;73.388;2023-02-18T00:38:45;101383.94;;;-14.05;63.00
50292;BME280;36190;54.980;73.388;2023-02-18T00:41:13;101371.97;;;-14.06;62.99
50292;BME280;36190;54.980;73.388;2023-02-18T00:43:40;101368.56;;;-14.08;63.00
50292;BME280;36190;54.980;73.388;2023-02-18T00:46:08;101369.38;;;-14.11;63.02
50292;BME280;36190;54.980;73.388;2023-02-18T00:48:36;101367.59;;;-14.18;63.02
50292;BME280;36190;54.980;73.388;2023-02-18T00:51:04;101368.50;;;-14.15;63.19
50292;BME280;36190;54.980;73.388;2023-02-18T00:53:34;101356.53;;;-14.13;63.25
50292;BME280;36190;54.980;73.388;2023-02-18T00:56:02;101337.78;;;-14.02;63.26
50292;BME280;36190;54.980;73.388;2023-02-18T00:58:30;101342.16;;;-13.90;63.39
50292;BME280;36190;54.980;73.388;2023-02-18T01:00:57;101331.97;;;-13.79;63.26
50292;BME280;36190;54.980;73.388;2023-02-18T01:03:25;101345.72;;;-13.71;63.14
50292;BME280;36190;54.980;73.388;2023-02-18T01:05:53;101342.31;;;-13.72;62.83
50292;BME280;36190;54.980;73.388;2023-02-18T01:08:20;101339.66;;;-13.79;62.72
50292;BME280;36190;54.980;73.388;2023-02-18T01:10:53;101301.16;;;-13.84;63.12
50292;BME280;36190;54.980;73.388;2023-02-18T01:13:21;101302.06;;;-13.74;62.93
50292;BME280;36190;54.980;73.388;2023-02-18T01:15:49;101315.78;;;-13.69;62.95
50292;BME280;36190;54.980;73.388;2023-02-18T01:18:16;101300.44;;;-13.60;62.91
50292;BME280;36190;54.980;73.388;2023-02-18T01:20:44;101267.94;;;-13.58;62.81
50292;BME280;36190;54.980;73.388;2023-02-18T01:23:12;101303.91;;;-13.51;62.91
50292;BME280;36190;54.980;73.388;2023-02-18T01:25:40;101283.34;;;-13.58;62.68
50292;BME280;36190;54.980;73.388;2023-02-18T01:28:12;101279.03;;;-13.68;62.78
50292;BME280;36190;54.980;73.388;2023-02-18T01:30:39;101296.97;;;-13.66;62.83
50292;BME280;36190;54.980;73.388;2023-02-18T01:33:08;101279.81;;;-13.74;62.82
50292;BME280;36190;54.980;73.388;2023-02-18T01:35:38;101266.94;;;-13.86;62.96
50292;BME280;36190;54.980;73.388;2023-02-18T01:38:06;101247.28;;;-13.79;63.12
50292;BME280;36190;54.980;73.388;2023-02-18T01:40:34;101238.78;;;-13.69;63.29
50292;BME280;36190;54.980;73.388;2023-02-18T01:43:02;101261.09;;;-13.56;63.18
50292;BME280;36190;54.980;73.388;2023-02-18T01:45:55;101259.38;;;-13.54;62.94
50292;BME280;36190;54.980;73.388;2023-02-18T01:48:29;101265.38;;;-13.61;62.80
50292;BME280;36190;54.980;73.388;2023-02-18T01:51:01;101254.22;;;-13.66;62.77
50292;BME280;36190;54.980;73.388;2023-02-18T01:53:46;101249.91;;;-13.72;62.85
50292;BME280;36190;54.980;73.388;2023-02-18T01:56:27;101260.16;;;-13.73;62.86
50292;BME280;36190;54.980;73.388;2023-02-18T01:58:57;101228.47;;;-13.85;63.01
50292;BME280;36190;54.980;73.388;2023-02-18T02:01:27;101240.44;;;-13.77;63.01
50292;BME280;36190;54.980;73.388;2023-02-18T02:03:55;101268.72;;;-13.74;63.02
50292;BME280;36190;54.980;73.388;2023-02-18T02:06:24;101268.72;;;-13.71;63.11
50292;BME280;36190;54.980;73.388;2023-02-18T02:08:54;101273.00;;;-13.70;63.06
50292;BME280;36190;54.980;73.388;2023-02-18T02:11:36;101296.97;;;-13.70;63.15
50292;BME280;36190;54.980;73.388;2023-02-18T02:14:21;101307.28;;;-13.60;63.18
50292;BME280;36190;54.980;73.388;2023-02-18T02:16:59;101312.47;;;-13.51;63.14
50292;BME280;36190;54.980;73.388;2023-02-18T02:20:01;101308.22;;;-13.38;62.99
50292;BME280;36190;54.980;73.388;2023-02-18T02:26:08;101315.16;;;-13.18;63.05
50292;BME280;36190;54.980;73.388;2023-02-18T02:28:57;101300.63;;;-13.10;62.86
50292;BME280;36190;54.980;73.388;2023-02-18T02:31:53;101293.78;;;-13.08;62.84
50292;BME280;36190;54.980;73.388;2023-02-18T02:34:39;101297.25;;;-12.93;62.78
50292;BME280;36190;54.980;73.388;2023-02-18T02:37:14;101297.25;;;-12.86;62.81
50292;BME280;36190;54.980;73.388;2023-02-18T02:39:48;101284.44;;;-12.87;62.73
50292;BME280;36190;54.980;73.388;2023-02-18T02:42:27;101294.72;;;-12.75;62.67
50292;BME280;36190;54.980;73.388;2023-02-18T02:45:02;101310.13;;;-12.72;62.70
50292;BME280;36190;54.980;73.388;2023-02-18T02:47:31;101311.00;;;-12.69;62.78
50292;BME280;36190;54.980;73.388;2023-02-18T02:50:04;101271.56;;;-12.87;62.58
50292;BME280;36190;54.980;73.388;2023-02-18T02:52:37;101306.72;;;-12.63;62.64
50292;BME280;36190;54.980;73.388;2023-02-18T02:55:08;101312.75;;;-12.59;62.60
50292;BME280;36190;54.980;73.388;2023-02-18T02:57:47;101311.88;;;-12.58;62.48
50292;BME280;36190;54.980;73.388;2023-02-18T03:00:18;101293.03;;;-12.54;62.55
50292;BME280;36190;54.980;73.388;2023-02-18T03:05:49;101295.59;;;-12.38;62.67
50292;BME280;36190;54.980;73.388;2023-02-18T03:08:34;101277.59;;;-12.37;62.50
50292;BME280;36190;54.980;73.388;2023-02-18T03:11:05;101276.75;;;-12.31;62.57
50292;BME280;36190;54.980;73.388;2023-02-18T03:14:00;101284.47;;;-12.19;62.55
50292;BME280;36190;54.980;73.388;2023-02-18T03:16:35;101279.31;;;-12.08;62.42
50292;BME280;36190;54.980;73.388;2023-02-18T03:19:09;101277.53;;;-12.01;62.21
50292;BME280;36190;54.980;73.388;2023-02-18T03:21:44;101270.75;;;-12.05;62.08
50292;BME280;36190;54.980;73.388;2023-02-18T03:24:16;101271.56;;;-12.11;61.89
50292;BME280;36190;54.980;73.388;2023-02-18T03:26:48;101254.44;;;-12.20;62.11
50292;BME280;36190;54.980;73.388;2023-02-18T03:29:18;101259.59;;;-12.10;62.20
50292;BME280;36190;54.980;73.388;2023-02-18T03:31:49;101260.38;;;-11.99;62.39
50292;BME280;36190;54.980;73.388;2023-02-18T03:34:23;101250.91;;;-11.84;62.26
50292;BME280;36190;54.980;73.388;2023-02-18T03:36:54;101245.78;;;-11.83;62.19
50292;BME280;36190;54.980;73.388;2023-02-18T03:39:24;101238.00;;;-11.75;62.01
50292;BME280;36190;54.980;73.388;2023-02-18T03:41:53;101238.00;;;-11.69;61.96
50292;BME280;36190;54.980;73.388;2023-02-18T03:44:21;101238.00;;;-11.67;61.85
50292;BME280;36190;54.980;73.388;2023-02-18T03:46:50;101243.16;;;-11.69;61.82
50292;BME280;36190;54.980;73.388;2023-02-18T03:49:18;101229.38;;;-11.65;61.73
50292;BME280;36190;54.980;73.388;2023-02-18T03:51:45;101232.81;;;-11.61;61.83
50292;BME280;36190;54.980;73.388;2023-02-18T03:54:14;101217.38;;;-11.56;61.75
50292;BME280;36190;54.980;73.388;2023-02-18T03:56:42;101226.78;;;-11.58;61.66
50292;BME280;36190;54.980;73.388;2023-02-18T03:59:10;101221.66;;;-11.58;61.52
50292;BME280;36190;54.980;73.388;2023-02-18T04:01:38;101224.22;;;-11.55;61.66
50292;BME280;36190;54.980;73.388;2023-02-18T04:04:05;101213.03;;;-11.48;61.76
50292;BME280;36190;54.980;73.388;2023-02-18T04:06:33;101217.28;;;-11.38;61.58
50292;BME280;36190;54.980;73.388;2023-02-18T04:09:01;101217.22;;;-11.28;61.53
50292;BME280;36190;54.980;73.388;2023-02-18T04:11:35;101218.06;;;-11.26;61.28
50292;BME280;36190;54.980;73.388;2023-02-18T04:14:03;101207.72;;;-11.20;61.34
50292;BME280;36190;54.980;73.388;2023-02-18T04:16:30;101212.78;;;-11.08;61.37
50292;BME280;36190;54.980;73.388;2023-02-18T04:18:58;101211.03;;;-10.98;61.23
50292;BME280;36190;54.980;73.388;2023-02-18T04:21:26;101204.97;;;-10.91;61.11
50292;BME280;36190;54.980;73.388;2023-02-18T04:23:53;101217.81;;;-10.86;60.97
50292;BME280;36190;54.980;73.388;2023-02-18T04:26:20;101219.53;;;-10.82;60.88
50292;BME280;36190;54.980;73.388;2023-02-18T04:28:49;101216.88;;;-10.75;61.26
50292;BME280;36190;54.980;73.388;2023-02-18T04:31:17;101213.38;;;-10.65;60.91
50292;BME280;36190;54.980;73.388;2023-02-18T04:33:45;101210.72;;;-10.54;60.64
50292;BME280;36190;54.980;73.388;2023-02-18T04:36:12;101204.59;;;-10.44;60.51
50292;BME280;36190;54.980;73.388;2023-02-18T04:38:40;101203.56;;;-10.29;60.55
50292;BME280;36190;54.980;73.388;2023-02-18T04:41:08;101205.06;;;-10.06;60.27
50292;BME280;36190;54.980;73.388;2023-02-18T04:43:37;101199.78;;;-9.97;59.97
50292;BME280;36190;54.980;73.388;2023-02-18T04:46:06;101183.47;;;-9.99;59.72
50292;BME280;36190;54.980;73.388;2023-02-18T04:48:33;101171.38;;;-9.95;59.78
50292;BME280;36190;54.980;73.388;2023-02-18T04:51:01;101172.13;;;-9.85;59.75
50292;BME280;36190;54.980;73.388;2023-02-18T04:53:29;101159.25;;;-9.88;59.55
50292;BME280;36190;54.980;73.388;2023-02-18T04:55:56;101168.59;;;-9.78;59.56
50292;BME280;36190;54.980;73.388;2023-02-18T04:58:24;101160.66;;;-9.62;59.63
50292;BME280;36190;54.980;73.388;2023-02-18T05:00:51;101163.91;;;-9.48;59.24
50292;BME280;36190;54.980;73.388;2023-02-18T05:03:20;101159.56;;;-9.46;59.06
50292;BME280;36190;54.980;73.388;2023-02-18T05:05:48;101170.00;;;-9.52;58.96
50292;BME280;36190;54.980;73.388;2023-02-18T05:08:15;101175.19;;;-9.55;59.09
50292;BME280;36190;54.980;73.388;2023-02-18T05:10:43;101164.78;;;-9.50;59.00
50292;BME280;36190;54.980;73.388;2023-02-18T05:13:11;101169.94;;;-9.47;58.95
50292;BME280;36190;54.980;73.388;2023-02-18T05:15:38;101166.63;;;-9.57;59.01
50292;BME280;36190;54.980;73.388;2023-02-18T05:18:06;101159.88;;;-9.68;58.89
50292;BME280;36190;54.980;73.388;2023-02-18T05:20:35;101158.22;;;-9.75;59.02
50292;BME280;36190;54.980;73.388;2023-02-18T05:23:02;101145.28;;;-9.72;59.28
50292;BME280;36190;54.980;73.388;2023-02-18T05:25:30;101152.13;;;-9.69;59.11
50292;BME280;36190;54.980;73.388;2023-02-18T05:27:57;101140.06;;;-9.69;58.94
50292;BME280;36190;54.980;73.388;2023-02-18T05:30:25;101128.69;;;-9.55;58.93
50292;BME280;36190;54.980;73.388;2023-02-18T05:32:52;101130.31;;;-9.46;58.92
50292;BME280;36190;54.980;73.388;2023-02-18T05:35:20;101135.25;;;-9.31;58.76
50292;BME280;36190;54.980;73.388;2023-02-18T05:37:48;101136.84;;;-9.22;58.45
50292;BME280;36190;54.980;73.388;2023-02-18T05:40:16;101135.81;;;-9.12;58.48
50292;BME280;36190;54.980;73.388;2023-02-18T05:42:44;101129.56;;;-8.98;58.20
50292;BME280;36190;54.980;73.388;2023-02-18T05:45:11;101131.34;;;-9.00;58.08
50292;BME280;36190;54.980;73.388;2023-02-18T05:47:38;101135.72;;;-9.05;57.89
50292;BME280;36190;54.980;73.388;2023-02-18T05:50:07;101133.09;;;-9.02;58.02
50292;BME280;36190;54.980;73.388;2023-02-18T05:52:34;101134.84;;;-9.04;57.92
50292;BME280;36190;54.980;73.388;2023-02-18T05:55:04;101137.53;;;-9.10;57.87
50292;BME280;36190;54.980;73.388;2023-02-18T05:57:31;101133.41;;;-9.22;57.92
50292;BME280;36190;54.980;73.388;2023-02-18T05:59:59;101135.94;;;-9.21;58.03
50292;BME280;36190;54.980;73.388;2023-02-18T06:02:27;101126.63;;;-9.31;57.94
50292;BME280;36190;54.980;73.388;2023-02-18T06:04:54;101130.16;;;-9.35;58.09
50292;BME280;36190;54.980;73.388;2023-02-18T06:07:22;101122.44;;;-9.40;57.90
50292;BME280;36190;54.980;73.388;2023-02-18T06:09:49;101120.72;;;-9.40;58.21
50292;BME280;36190;54.980;73.388;2023-02-18T06:12:18;101135.22;;;-9.29;58.28
50292;BME280;36190;54.980;73.388;2023-02-18T06:14:46;101128.25;;;-9.24;58.00
50292;BME280;36190;54.980;73.388;2023-02-18T06:17:14;101119.59;;;-9.21;57.88
50292;BME280;36190;54.980;73.388;2023-02-18T06:19:43;101115.38;;;-9.27;57.82
50292;BME280;36190;54.980;73.388;2023-02-18T06:22:11;101116.22;;;-9.28;57.92
50292;BME280;36190;54.980;73.388;2023-02-18T06:24:38;101117.97;;;-9.27;57.74
50292;BME280;36190;54.980;73.388;2023-02-18T06:27:06;101109.34;;;-9.26;57.90
50292;BME280;36190;54.980;73.388;2023-02-18T06:29:35;101092.94;;;-9.23;57.74
50292;BME280;36190;54.980;73.388;2023-02-18T06:32:03;101099.97;;;-9.35;57.63
50292;BME280;36190;54.980;73.388;2023-02-18T06:34:30;101099.16;;;-9.39;57.81
50292;BME280;36190;54.980;73.388;2023-02-18T06:36:58;101092.16;;;-9.30;57.85
50292;BME280;36190;54.980;73.388;2023-02-18T06:39:25;101079.97;;;-9.22;57.80
50292;BME280;36190;54.980;73.388;2023-02-18T06:41:53;101084.28;;;-9.22;57.53
50292;BME280;36190;54.980;73.388;2023-02-18T06:44:20;101086.03;;;-9.25;57.53
50292;BME280;36190;54.980;73.388;2023-02-18T06:46:49;101078.91;;;-9.12;57.63
50292;BME280;36190;54.980;73.388;2023-02-18T06:49:16;101073.38;;;-8.87;57.61
50292;BME280;36190;54.980;73.388;2023-02-18T06:51:44;101073.94;;;-8.72;57.43
50292;BME280;36190;54.980;73.388;2023-02-18T06:54:11;101063.38;;;-8.60;57.19
50292;BME280;36190;54.980;73.388;2023-02-18T06:56:39;101054.63;;;-8.52;56.80
50292;BME280;36190;54.980;73.388;2023-02-18T06:59:06;101057.22;;;-8.52;56.69
50292;BME280;36190;54.980;73.388;2023-02-18T07:01:34;101052.81;;;-8.50;56.73
50292;BME280;36190;54.980;73.388;2023-02-18T07:04:03;101051.81;;;-8.42;56.61
50292;BME280;36190;54.980;73.388;2023-02-18T07:06:30;101046.28;;;-8.24;56.57
50292;BME280;36190;54.980;73.388;2023-02-18T07:08:58;101047.84;;;-8.16;56.55
50292;BME280;36190;54.980;73.388;2023-02-18T07:11:25;101041.50;;;-8.02;56.36
50292;BME280;36190;54.980;73.388;2023-02-18T07:13:53;101028.19;;;-7.85;56.34
50292;BME280;36190;54.980;73.388;2023-02-18T07:16:20;101025.03;;;-7.60;56.28
50292;BME280;36190;54.980;73.388;2023-02-18T07:18:48;101020.94;;;-7.34;55.95
50292;BME280;36190;54.980;73.388;2023-02-18T07:21:17;101019.91;;;-7.27;55.56
50292;BME280;36190;54.980;73.388;2023-02-18T07:23:44;101017.31;;;-7.27;55.46
50292;BME280;36190;54.980;73.388;2023-02-18T07:26:13;101022.50;;;-7.27;55.43
50292;BME280;36190;54.980;73.388;2023-02-18T07:28:41;101014.69;;;-7.25;55.55
50292;BME280;36190;54.980;73.388;2023-02-18T07:31:08;101013.13;;;-7.31;55.19
50292;BME280;36190;54.980;73.388;2023-02-18T07:33:36;101012.22;;;-7.30;55.56
50292;BME280;36190;54.980;73.388;2023-02-18T07:36:04;101008.41;;;-7.16;55.57
50292;BME280;36190;54.980;73.388;2023-02-18T07:38:33;101011.19;;;-6.89;55.18
50292;BME280;36190;54.980;73.388;2023-02-18T07:41:01;101017.34;;;-6.60;55.03
50292;BME280;36190;54.980;73.388;2023-02-18T07:43:28;101013.59;;;-6.50;54.68
50292;BME280;36190;54.980;73.388;2023-02-18T07:45:55;101010.00;;;-6.46;54.54
50292;BME280;36190;54.980;73.388;2023-02-18T07:48:23;101006.75;;;-6.23;54.43
50292;BME280;36190;54.980;73.388;2023-02-18T07:50:50;101011.13;;;-5.96;54.30
50292;BME280;36190;54.980;73.388;2023-02-18T07:53:18;101006.94;;;-5.72;54.11
50292;BME280;36190;54.980;73.388;2023-02-18T07:55:47;100991.81;;;-5.59;53.75
50292;BME280;36190;54.980;73.388;2023-02-18T07:58:17;101001.81;;;-5.46;53.64
50292;BME280;36190;54.980;73.388;2023-02-18T08:00:46;100993.75;;;-5.39;53.50
50292;BME280;36190;54.980;73.388;2023-02-18T08:03:14;100989.00;;;-5.53;53.21
50292;BME280;36190;54.980;73.388;2023-02-18T08:05:42;100978.28;;;-5.70;53.39
50292;BME280;36190;54.980;73.388;2023-02-18T08:08:12;100976.47;;;-5.68;53.43
50292;BME280;36190;54.980;73.388;2023-02-18T08:10:40;100985.00;;;-5.63;53.39
50292;BME280;36190;54.980;73.388;2023-02-18T08:13:09;100987.00;;;-5.71;53.31
50292;BME280;36190;54.980;73.388;2023-02-18T08:15:37;100986.75;;;-5.63;53.18
50292;BME280;36190;54.980;73.388;2023-02-18T08:18:05;100993.09;;;-5.45;53.32
50292;BME280;36190;54.980;73.388;2023-02-18T08:20:35;100989.19;;;-5.32;52.91
50292;BME280;36190;54.980;73.388;2023-02-18T08:23:03;100994.78;;;-5.44;52.76
50292;BME280;36190;54.980;73.388;2023-02-18T08:25:31;100975.38;;;-5.61;52.52
50292;BME280;36190;54.980;73.388;2023-02-18T08:27:59;100984.72;;;-5.82;52.90
50292;BME280;36190;54.980;73.388;2023-02-18T08:30:28;100983.31;;;-5.93;53.01
50292;BME280;36190;54.980;73.388;2023-02-18T08:32:55;100993.81;;;-5.96;53.16
50292;BME280;36190;54.980;73.388;2023-02-18T08:35:23;100987.84;;;-5.99;53.31
50292;BME280;36190;54.980;73.388;2023-02-18T08:37:50;100984.34;;;-5.98;53.26
50292;BME280;36190;54.980;73.388;2023-02-18T08:40:18;100997.22;;;-5.94;53.30
50292;BME280;36190;54.980;73.388;2023-02-18T08:42:45;100990.03;;;-5.85;53.25
50292;BME280;36190;54.980;73.388;2023-02-18T08:45:13;100986.34;;;-5.78;53.07
50292;BME280;36190;54.980;73.388;2023-02-18T08:47:42;100987.09;;;-5.74;52.80
50292;BME280;36190;54.980;73.388;2023-02-18T08:50:10;100979.00;;;-5.65;52.93
50292;BME280;36190;54.980;73.388;2023-02-18T08:52:37;100979.78;;;-5.63;52.81
50292;BME280;36190;54.980;73.388;2023-02-18T08:55:05;100985.19;;;-5.69;52.67
50292;BME280;36190;54.980;73.388;2023-02-18T08:57:33;100970.63;;;-5.75;52.80
50292;BME280;36190;54.980;73.388;2023-02-18T09:00:00;100974.56;;;-5.90;52.58
50292;BME280;36190;54.980;73.388;2023-02-18T09:02:28;100979.56;;;-6.11;52.96
50292;BME280;36190;54.980;73.388;2023-02-18T09:04:57;100974.25;;;-6.36;53.07
50292;BME280;36190;54.980;73.388;2023-02-18T09:07:24;100979.03;;;-6.52;53.31
50292;BME280;36190;54.980;73.388;2023-02-18T09:09:52;100979.19;;;-6.58;53.57
50292;BME280;36190;54.980;73.388;2023-02-18T09:12:19;100976.78;;;-6.65;53.68
50292;BME280;36190;54.980;73.388;2023-02-18T09:14:47;100980.06;;;-6.58;53.58
50292;BME280;36190;54.980;73.388;2023-02-18T09:17:14;100974.53;;;-6.45;53.78
50292;BME280;36190;54.980;73.388;2023-02-18T09:19:42;100970.16;;;-6.45;53.48
50292;BME280;36190;54.980;73.388;2023-02-18T09:22:11;100977.94;;;-6.43;53.30
50292;BME280;36190;54.980;73.388;2023-02-18T09:24:39;100972.72;;;-6.43;53.37
50292;BME280;36190;54.980;73.388;2023-02-18T09:27:07;100975.47;;;-6.48;53.50
50292;BME280;36190;54.980;73.388;2023-02-18T09:29:37;100960.84;;;-6.52;53.44
50292;BME280;36190;54.980;73.388;2023-02-18T09:32:07;100959.53;;;-6.66;53.42
50292;BME280;36190;54.980;73.388;2023-02-18T09:34:35;100962.53;;;-6.81;53.57
50292;BME280;36190;54.980;73.388;2023-02-18T09:37:03;100962.88;;;-6.94;53.89
50292;BME280;36190;54.980;73.388;2023-02-18T09:39:32;100961.44;;;-7.06;53.92
50292;BME280;36190;54.980;73.388;2023-02-18T09:42:02;100960.81;;;-7.14;54.17
50292;BME280;36190;54.980;73.388;2023-02-18T09:44:33;100958.56;;;-7.28;54.26
50292;BME280;36190;54.980;73.388;2023-02-18T09:47:05;100959.59;;;-7.34;54.52
50292;BME280;36190;54.980;73.388;2023-02-18T09:49:39;100958.41;;;-7.22;54.53
50292;BME280;36190;54.980;73.388;2023-02-18T09:52:13;100958.22;;;-7.15;54.39
50292;BME280;36190;54.980;73.388;2023-02-18T09:54:42;100961.78;;;-7.18;54.25
50292;BME280;36190;54.980;73.388;2023-02-18T09:57:19;100962.84;;;-7.25;54.45
50292;BME280;36190;54.980;73.388;2023-02-18T09:59:55;100941.84;;;-7.51;54.21
50292;BME280;36190;54.980;73.388;2023-02-18T10:02:24;100964.47;;;-7.56;54.56
50292;BME280;36190;54.980;73.388;2023-02-18T10:04:52;100966.38;;;-7.64;54.59
50292;BME280;36190;54.980;73.388;2023-02-18T10:07:22;100963.03;;;-7.68;54.87
50292;BME280;36190;54.980;73.388;2023-02-18T10:09:54;100954.59;;;-7.78;54.90
50292;BME280;36190;54.980;73.388;2023-02-18T10:12:24;100965.31;;;-7.93;54.93
50292;BME280;36190;54.980;73.388;2023-02-18T10:14:54;100965.69;;;-8.10;55.27
50292;BME280;36190;54.980;73.388;2023-02-18T10:17:24;100968.38;;;-8.15;55.45
50292;BME280;36190;54.980;73.388;2023-02-18T10:19:54;100960.84;;;-8.24;55.61
50292;BME280;36190;54.980;73.388;2023-02-18T10:22:24;100968.00;;;-8.36;55.70
50292;BME280;36190;54.980;73.388;2023-02-18T10:24:56;100961.22;;;-8.43;55.87
50292;BME280;36190;54.980;73.388;2023-02-18T10:27:26;100965.63;;;-8.48;55.89
50292;BME280;36190;54.980;73.388;2023-02-18T10:29:55;100971.72;;;-8.49;56.07
50292;BME280;36190;54.980;73.388;2023-02-18T10:32:30;100972.50;;;-8.46;56.01
50292;BME280;36190;54.980;73.388;2023-02-18T10:35:04;100967.28;;;-8.44;56.16
50292;BME280;36190;54.980;73.388;2023-02-18T10:37:56;100969.03;;;-8.46;56.14
50292;BME280;36190;54.980;73.388;2023-02-18T10:40:36;100967.41;;;-8.49;56.27
50292;BME280;36190;54.980;73.388;2023-02-18T10:43:11;100958.88;;;-8.52;56.33
50292;BME280;36190;54.980;73.388;2023-02-18T10:45:47;100952.84;;;-8.54;56.36
50292;BME280;36190;54.980;73.388;2023-02-18T10:51:14;100970.06;;;-8.52;56.19
50292;BME280;36190;54.980;73.388;2023-02-18T10:53:44;100975.41;;;-8.60;56.09
50292;BME280;36190;54.980;73.388;2023-02-18T10:56:36;100971.22;;;-8.65;56.55
50292;BME280;36190;54.980;73.388;2023-02-18T10:59:14;100981.72;;;-8.75;56.78
50292;BME280;36190;54.980;73.388;2023-02-18T11:01:46;100971.63;;;-8.87;56.75
50292;BME280;36190;54.980;73.388;2023-02-18T11:04:20;100973.44;;;-8.92;56.88
50292;BME280;36190;54.980;73.388;2023-02-18T11:06:50;100980.28;;;-8.88;56.92
50292;BME280;36190;54.980;73.388;2023-02-18T11:09:30;100972.41;;;-8.84;57.06
50292;BME280;36190;54.980;73.388;2023-02-18T11:12:05;100979.19;;;-8.76;56.94
50292;BME280;36190;54.980;73.388;2023-02-18T11:14:38;100953.50;;;-8.86;56.97
50292;BME280;36190;54.980;73.388;2023-02-18T11:17:15;100970.41;;;-8.69;57.03
50292;BME280;36190;54.980;73.388;2023-02-18T11:19:51;100969.53;;;-8.68;56.90
50292;BME280;36190;54.980;73.388;2023-02-18T11:22:20;100972.16;;;-8.71;56.83
50292;BME280;36190;54.980;73.388;2023-02-18T11:24:53;100950.91;;;-8.86;56.92
50292;BME280;36190;54.980;73.388;2023-02-18T11:27:30;100963.66;;;-8.76;56.86
50292;BME280;36190;54.980;73.388;2023-02-18T11:30:01;100957.06;;;-8.93;56.95
50292;BME280;36190;54.980;73.388;2023-02-18T11:32:30;100975.81;;;-8.81;57.23
50292;BME280;36190;54.980;73.388;2023-02-18T11:35:00;100971.50;;;-8.81;57.10
50292;BME280;36190;54.980;73.388;2023-02-18T11:37:31;100967.25;;;-8.84;57.26
50292;BME280;36190;54.980;73.388;2023-02-18T11:39:59;100971.53;;;-8.82;57.34
50292;BME280;36190;54.980;73.388;2023-02-18T11:42:29;100973.31;;;-8.86;57.27
50292;BME280;36190;54.980;73.388;2023-02-18T11:44:57;100977.66;;;-8.87;57.23
50292;BME280;36190;54.980;73.388;2023-02-18T11:47:27;100969.00;;;-8.86;57.28
50292;BME280;36190;54.980;73.388;2023-02-18T11:50:02;100970.91;;;-8.94;57.28
50292;BME280;36190;54.980;73.388;2023-02-18T11:52:34;100965.13;;;-9.10;57.46
50292;BME280;36190;54.980;73.388;2023-02-18T11:55:04;100966.22;;;-9.22;57.77
50292;BME280;36190;54.980;73.388;2023-02-18T11:57:36;100969.75;;;-9.26;57.94
50292;BME280;36190;54.980;73.388;2023-02-18T12:00:15;100975.75;;;-9.26;58.13
50292;BME280;36190;54.980;73.388;2023-02-18T12:02:46;100969.78;;;-9.29;58.03
50292;BME280;36190;54.980;73.388;2023-02-18T12:05:19;100948.47;;;-9.42;58.11
50292;BME280;36190;54.980;73.388;2023-02-18T12:07:50;100966.41;;;-9.33;58.11
50292;BME280;36190;54.980;73.388;2023-02-18T12:10:22;100963.13;;;-9.43;58.16
50292;BME280;36190;54.980;73.388;2023-02-18T12:12:57;100949.50;;;-9.53;58.29
50292;BME280;36190;54.980;73.388;2023-02-18T12:15:33;100964.88;;;-9.45;58.38
50292;BME280;36190;54.980;73.388;2023-02-18T12:18:29;100970.84;;;-9.41;58.53
50292;BME280;36190;54.980;73.388;2023-02-18T12:21:22;100971.72;;;-9.41;58.54
50292;BME280;36190;54.980;73.388;2023-02-18T12:24:00;100964.84;;;-9.42;58.36
50292;BME280;36190;54.980;73.388;2023-02-18T12:26:37;100965.72;;;-9.43;58.31
50292;BME280;36190;54.980;73.388;2023-02-18T12:29:38;100970.03;;;-9.45;58.56
50292;BME280;36190;54.980;73.388;2023-02-18T12:32:15;100971.81;;;-9.47;58.55
50292;BME280;36190;54.980;73.388;2023-02-18T12:34:57;100969.31;;;-9.53;58.52
50292;BME280;36190;54.980;73.388;2023-02-18T12:37:53;100963.38;;;-9.58;58.98
50292;BME280;36190;54.980;73.388;2023-02-18T12:40:39;100974.59;;;-9.59;59.11
50292;BME280;36190;54.980;73.388;2023-02-18T12:43:19;100955.00;;;-9.73;59.10
50292;BME280;36190;54.980;73.388;2023-02-18T12:46:04;100973.00;;;-9.67;59.12
50292;BME280;36190;54.980;73.388;2023-02-18T12:48:46;100972.28;;;-9.78;59.33
50292;BME280;36190;54.980;73.388;2023-02-18T12:51:25;100970.66;;;-9.82;59.68
50292;BME280;36190;54.980;73.388;2023-02-18T12:54:23;100973.22;;;-9.81;60.05
50292;BME280;36190;54.980;73.388;2023-02-18T12:57:11;100970.81;;;-9.95;59.93
50292;BME280;36190;54.980;73.388;2023-02-18T13:03:19;100972.97;;;-10.25;60.67
50292;BME280;36190;54.980;73.388;2023-02-18T13:05:59;100973.94;;;-10.35;60.90
50292;BME280;36190;54.980;73.388;2023-02-18T13:08:37;100974.06;;;-10.41;61.25